Terminal Aerodrome Forecast
Issued by NWS

Home | Current Version | Previous Version | Text Only | Print | Product List | Glossary On
Versions: 1 2 3 4 5 6 7 8 9 10 11 12 13 14 15 16 17 18 19 20 21 22 23 24
000
FTUS45 KGJT 210520
TAFTEX
TAF
KTEX 210520Z 2106/2206 VRB03KT P6SM FEW070 BKN130
     FM211500 14009KT P6SM -SHSN BKN050 OVC070 WS020/16045KT
     FM212100 17010G20KT 3SM -SHSN VCTS BKN020CB OVC030
     FM220100 19006KT P6SM -SHSN BKN025 OVC045
     FM220300 16005KT P6SM -SHSN BKN015 OVC030=

USA.gov is the U.S. government's official web portal to all federal, state and local government web resources and services.